Relevés horaires Saint-Yan (France)


Relevés horaires à Saint-Yan - Dimanche 04 Avr. 2021
Heure UTC1 Température [°C] Vent [km/h] Hum. [%] Pres.4 [hPa] Visi. [Km] Nébu. [octa] Préc.5 [mm] Cond.
2m. Res. Ros. Dir.2 Vit. Moy. Raf.3
23:00 2.4 2.4 0.5 SSO 1.9 -- 3.7 87 1020.5(0.1/3h) 50 -- -- --
22:00 4.5 4.5 0.4 SSE 1.9 -- 3.7 75 1020.5(0.7/3h) 45 -- -- --
21:00 6.1 6.1 0.4 NNO 3.7 -- 7.4 67 1020.3(0.8/3h) 45 -- -- --
20:00 8.1 8.1 -0.4 NNO 3.7 -- 5.6 55 1019.8(0.4/3h) 60 -- -- --
19:00 9.5 9.5 -0.4 NNO 3.7 -- 5.6 50 1019.2(-0.1/3h) 60 -- -- --
18:00 12.9 12.9 -0.4 N 5.6 -- 11.1 40 1018.8(-0.5/3h) 55 -- -- --
17:00 15.3 15.1 -1.3 N 9.3 -- 13.0 32 1018.6(-0.8/3h) 60 -- -- --
16:00 16.0 15.9 -1.1 N 9.3 -- 14.8 31 1018.7(-1.2/3h) 55 -- -- --
15:00 16.2 16.2 0.7 NE 7.4 -- 13.0 35 1018.9(-1.4/3h) 19 -- -- --
14:00 15.7 15.7 -0.1 NE 7.4 -- 18.5 34 1019.4(-1.3/3h) 40 -- -- --
13:00 15.1 14.6 -2.4 NE 11.1 -- 22.2 30 1020(-1.3/3h) 26 -- -- --
12:00 14.2 13.3 -3.2 NE 13.0 -- 22.2 30 1020.6(-0.8/3h) 27 -- -- --
11:00 13.3 12.2 -3.5 NE 13.0 -- 22.2 31 1021(-0.6/3h) 27 -- -- --
10:00 12.6 11.3 -1.7 NE 13.0 -- 18.5 37 1021.6(-0.3/3h) 27 -- -- --
09:00 10.6 9.2 -1.2 NNE 11.1 -- 16.7 44 1021.8(-0.1/3h) 28 -- -- --
08:00 7.1 7.1 -0.1 ONO 1.9 -- 7.4 60 1022.2(0.4/3h) 13 -- -- --
07:00 3.9 3.9 -0.5 OSO 3.7 -- 5.6 73 1022.8(0.8/3h) 45 -- -- --
06:00 -0.1 -0.1 -2.3 SO 1.9 -- 3.7 85 1023(0.8/3h) 30 -- -- --
05:00 -0.8 -2.8 -3.7 NO 5.6 -- 9.3 81 1022.7(0.5/3h) 30 -- -- --
04:00 0.2 0.2 -2.7 NO 3.7 -- 7.4 81 1022.4(0.1/3h) 40 -- -- --
03:00 1.9 1.9 -2.4 N 3.7 -- 9.3 73 1022(-0.3/3h) 50 -- -- --
02:00 0.8 -1.6 -2.8 NO 7.4 -- 11.1 77 1022(-0.6/3h) 45 -- 0/1h
--
01:00 3.3 0.8 -1.7 NNO 9.3 -- 11.1 70 1021.9(-0.4/3h) 50 -- 0/1h
--
00:00 2.3 0.1 -2.0 NNO 7.4 -- 11.1 73 1022.3(-0.3/3h) 45 -- 0/3h
0/6h
--

1 Coordinated Universal Time. Actuellement il est 20:00 locale et 18:00 UTC.

2 Le vent souffle depuis la direction indiquée vers la direction oposée.

3 Les rafales max. sont disponible 40 min après l'heure du relevé.

4 Pour les stations d'altitude (plus de 600m) le géopotentiel du niveau le plus proche de la pression obligatoire est indiqué.

5 Les stations disposant d'un diffuseur peuvent indiquer "trace". Cela signifie que des précipitations ont touchés le sol mais que la quantité est inférieure à 0.1 mm.

Récapitulatif de la journée
Température [°C] Vent [km/h] Ensoleillement4 [h] Precipitations totale5 [mm] Pression [Hpa]
Min1 Max.2 Moy.3 Max. Min Max.
-0.9 16.4 0 22.2 0 h 0 min 0 1018.6 1023.0

1 Température minimale relevée entre 18:00 UTC la veille et 18:00 UTC le jour donné.

2 Température maximale relevée entre 06:00 UTC le jour donné et 06:00 UTC le lendemain.

3 Vent moyen de la journée basé sur les relevés horaires.

4 Ensoleillement en heures relevé entre 06:00 UTC la veille et 06:00 UTC le jour donné.

5 Précipitations totales tombées entre 06:00 UTC la jour donné et 06:00 UTC le lendemain.

Graphiques horaires